Time;durP1;ratioP1;P1;durP2;ratioP2;P2;SDS_P1;SDS_P2;PMS_P1;PMS_P2;Temp;Humidity;BMP_temperature;BMP_pressure;BME280_temperature;BME280_humidity;BME280_pressure;Samples;Min_cycle;Max_cycle;Signal;HPM_P1;HPM_P2
2023/05/18 00:00:09;;;;;;;9.45;4.35;;;;;;;;;;5040198;28;20037;-83
2023/05/18 00:02:35;;;;;;;14.20;4.85;;;;;;;;;;5039425;28;20036;-82
2023/05/18 00:05:01;;;;;;;11.00;4.80;;;;;;;;;;5029739;28;20496;-81
2023/05/18 00:07:28;;;;;;;8.25;3.92;;;;;;;;;;5025271;28;20037;-82
2023/05/18 00:09:54;;;;;;;9.73;3.92;;;;;;;;;;5029727;28;20037;-81
2023/05/18 00:12:19;;;;;;;6.32;3.45;;;;;;;;;;5065986;23;21176;-78
2023/05/18 00:14:45;;;;;;;16.95;4.15;;;;;;;;;;5034879;28;20060;-78
2023/05/18 00:17:10;;;;;;;6.25;3.70;;;;;;;;;;5034565;28;20335;-79
2023/05/18 00:19:36;;;;;;;5.40;3.63;;;;;;;;;;5034793;28;20080;-79
2023/05/18 00:22:01;;;;;;;13.90;4.07;;;;;;;;;;5035195;28;20506;-79
2023/05/18 00:24:26;;;;;;;4.68;3.22;;;;;;;;;;5035773;28;20087;-79
2023/05/18 00:26:52;;;;;;;7.22;3.50;;;;;;;;;;5035283;28;20479;-78
2023/05/18 00:29:17;;;;;;;12.60;3.30;;;;;;;;;;5036107;28;20029;-78
2023/05/18 00:31:44;;;;;;;11.10;3.90;;;;;;;;;;5036101;28;20487;-79
2023/05/18 00:34:11;;;;;;;5.82;3.63;;;;;;;;;;5035185;28;20096;-79
2023/05/18 00:36:37;;;;;;;12.07;4.07;;;;;;;;;;5034724;28;20033;-78
2023/05/18 00:39:04;;;;;;;6.32;3.75;;;;;;;;;;5034565;28;20092;-79
2023/05/18 00:41:30;;;;;;;7.65;4.05;;;;;;;;;;5035715;28;20028;-79
2023/05/18 00:43:56;;;;;;;6.40;3.90;;;;;;;;;;5035353;28;20033;-79
2023/05/18 00:46:22;;;;;;;8.57;4.53;;;;;;;;;;5035167;28;20045;-78
2023/05/18 00:48:49;;;;;;;6.65;3.22;;;;;;;;;;5034930;28;20449;-78
2023/05/18 00:51:15;;;;;;;6.88;3.53;;;;;;;;;;5027029;28;20106;-79
2023/05/18 00:53:42;;;;;;;6.07;3.92;;;;;;;;;;5035306;28;20040;-79
2023/05/18 00:56:09;;;;;;;10.48;4.05;;;;;;;;;;5034608;28;20029;-79
2023/05/18 00:58:35;;;;;;;8.95;4.32;;;;;;;;;;5035553;28;20522;-79
2023/05/18 01:01:01;;;;;;;6.75;4.28;;;;;;;;;;5033842;28;20037;-78
2023/05/18 01:03:28;;;;;;;7.78;4.72;;;;;;;;;;5035252;28;20385;-79
2023/05/18 01:05:57;;;;;;;7.30;4.05;;;;;;;;;;5033455;28;20026;-78
2023/05/18 01:08:25;;;;;;;7.15;4.03;;;;;;;;;;5032263;28;20033;-77
2023/05/18 01:11:07;;;;;;;7.80;4.00;;;;;;;;;;5033088;28;20033;-77
2023/05/18 01:13:46;;;;;;;5.30;3.58;;;;;;;;;;5032987;28;20403;-78
2023/05/18 01:16:20;;;;;;;8.60;4.47;;;;;;;;;;5047949;28;20526;-78
2023/05/18 01:18:54;;;;;;;13.85;4.45;;;;;;;;;;5031899;28;20546;-77
2023/05/18 01:21:35;;;;;;;;;;;;;;;;;;5033501;28;20513;-77
2023/05/18 01:24:14;;;;;;;13.77;4.82;;;;;;;;;;5032641;28;20291;-77
2023/05/18 01:26:44;;;;;;;6.45;3.95;;;;;;;;;;5031939;28;20498;-78
2023/05/18 01:29:12;;;;;;;8.57;3.92;;;;;;;;;;5032184;28;20030;-77
2023/05/18 01:31:38;;;;;;;8.57;4.63;;;;;;;;;;5032313;28;20042;-77
2023/05/18 01:34:04;;;;;;;8.52;3.95;;;;;;;;;;5030618;28;20127;-77
2023/05/18 01:36:30;;;;;;;11.60;5.20;;;;;;;;;;5032618;28;20041;-77
2023/05/18 01:39:00;;;;;;;11.20;4.32;;;;;;;;;;5031722;28;20026;-77
2023/05/18 01:41:27;;;;;;;12.25;4.43;;;;;;;;;;5031800;28;20096;-77
2023/05/18 01:44:21;;;;;;;6.18;4.10;;;;;;;;;;5021564;28;20033;-77
2023/05/18 01:46:53;;;;;;;7.38;4.00;;;;;;;;;;5031508;28;20156;-78
2023/05/18 01:49:36;;;;;;;13.90;4.68;;;;;;;;;;5031251;28;20395;-77
2023/05/18 01:52:10;;;;;;;13.82;4.70;;;;;;;;;;5031629;28;20044;-77
2023/05/18 01:54:39;;;;;;;9.18;4.40;;;;;;;;;;5032136;28;20438;-77
2023/05/18 01:57:07;;;;;;;8.60;3.92;;;;;;;;;;5030548;28;20026;-78
2023/05/18 01:59:32;;;;;;;13.70;4.30;;;;;;;;;;5032194;28;20456;-77
2023/05/18 02:01:59;;;;;;;9.88;4.32;;;;;;;;;;5029222;28;20064;-77
2023/05/18 02:04:25;;;;;;;9.32;3.78;;;;;;;;;;5031160;28;20525;-77
2023/05/18 02:06:53;;;;;;;6.65;3.67;;;;;;;;;;5030873;28;20037;-78
2023/05/18 02:09:21;;;;;;;6.32;3.90;;;;;;;;;;5031326;28;20493;-77
2023/05/18 02:11:47;;;;;;;7.30;3.78;;;;;;;;;;5031449;28;20025;-77
2023/05/18 02:14:12;;;;;;;6.13;3.83;;;;;;;;;;5030935;28;20099;-77
2023/05/18 02:16:37;;;;;;;11.85;4.20;;;;;;;;;;5030730;28;20037;-77
2023/05/18 02:19:03;;;;;;;4.57;3.80;;;;;;;;;;5030626;28;20034;-78
2023/05/18 02:21:28;;;;;;;9.55;4.00;;;;;;;;;;5031330;28;20433;-77
2023/05/18 02:23:54;;;;;;;9.02;3.80;;;;;;;;;;5031492;28;20037;-77
2023/05/18 02:26:19;;;;;;;9.45;3.65;;;;;;;;;;5030892;28;20120;-77
2023/05/18 02:28:45;;;;;;;6.55;4.30;;;;;;;;;;5029623;28;20030;-77
2023/05/18 02:31:11;;;;;;;10.63;4.50;;;;;;;;;;5031304;28;20441;-77
2023/05/18 02:33:38;;;;;;;8.43;4.38;;;;;;;;;;5030485;28;20099;-77
2023/05/18 02:36:06;;;;;;;14.13;4.00;;;;;;;;;;5030957;28;20017;-78
2023/05/18 02:38:31;;;;;;;11.07;4.70;;;;;;;;;;5031148;28;20045;-78
2023/05/18 02:40:57;;;;;;;8.68;3.92;;;;;;;;;;5031403;28;20037;-78
2023/05/18 02:43:22;;;;;;;9.85;4.78;;;;;;;;;;5031408;28;20037;-79
2023/05/18 02:45:47;;;;;;;15.77;4.68;;;;;;;;;;5031356;28;20460;-78
2023/05/18 02:48:12;;;;;;;8.55;3.88;;;;;;;;;;5031536;28;20026;-78
2023/05/18 02:50:38;;;;;;;6.57;4.30;;;;;;;;;;5032647;28;20021;-78
2023/05/18 02:53:03;;;;;;;13.07;4.53;;;;;;;;;;5034789;28;20585;-78
2023/05/18 02:55:28;;;;;;;11.40;4.10;;;;;;;;;;5035186;28;20045;-78
2023/05/18 02:57:56;;;;;;;8.40;4.22;;;;;;;;;;5034575;28;20034;-77
2023/05/18 03:00:22;;;;;;;14.23;4.88;;;;;;;;;;5035372;28;20171;-77
2023/05/18 03:02:49;;;;;;;6.80;4.45;;;;;;;;;;5034577;28;20422;-77
2023/05/18 03:05:15;;;;;;;9.55;4.40;;;;;;;;;;5035688;28;20030;-77
2023/05/18 03:07:44;;;;;;;8.18;3.90;;;;;;;;;;5035409;28;20025;-77
2023/05/18 03:10:10;;;;;;;9.75;5.28;;;;;;;;;;5034043;28;20029;-77
2023/05/18 03:12:35;;;;;;;6.95;4.78;;;;;;;;;;5033439;28;20414;-77
2023/05/18 03:15:00;;;;;;;7.43;4.35;;;;;;;;;;5034477;28;20025;-77
2023/05/18 03:17:26;;;;;;;6.53;4.47;;;;;;;;;;5035034;28;20064;-77
2023/05/18 03:19:51;;;;;;;11.40;4.63;;;;;;;;;;5034217;28;20452;-78
2023/05/18 03:22:16;;;;;;;7.85;4.15;;;;;;;;;;5034723;28;20057;-78
2023/05/18 03:24:42;;;;;;;7.68;5.13;;;;;;;;;;5034398;28;20491;-77
2023/05/18 03:27:07;;;;;;;4.68;3.50;;;;;;;;;;5033786;28;20199;-77
2023/05/18 03:29:35;;;;;;;9.80;4.55;;;;;;;;;;5035230;28;20116;-77
2023/05/18 03:32:01;;;;;;;9.95;5.07;;;;;;;;;;5033230;28;20045;-78
2023/05/18 03:34:26;;;;;;;7.60;4.93;;;;;;;;;;5034374;28;20041;-77
2023/05/18 03:36:53;;;;;;;7.60;4.50;;;;;;;;;;5033641;28;20115;-77
2023/05/18 03:39:19;;;;;;;10.32;5.05;;;;;;;;;;5034132;28;20024;-77
2023/05/18 03:41:44;;;;;;;8.00;5.47;;;;;;;;;;5034650;28;20029;-77
2023/05/18 03:44:09;;;;;;;11.05;5.13;;;;;;;;;;5033508;28;20395;-78
2023/05/18 03:46:35;;;;;;;13.77;5.53;;;;;;;;;;5030815;28;20033;-77
2023/05/18 03:49:00;;;;;;;13.10;5.07;;;;;;;;;;5033640;28;20034;-77
2023/05/18 03:51:27;;;;;;;10.32;5.57;;;;;;;;;;5033627;28;20038;-77
2023/05/18 03:53:53;;;;;;;7.65;4.47;;;;;;;;;;5034757;28;20057;-77
2023/05/18 03:56:18;;;;;;;10.13;5.50;;;;;;;;;;5033518;28;20064;-78
2023/05/18 03:58:44;;;;;;;15.45;6.43;;;;;;;;;;5034072;28;20360;-77
2023/05/18 04:01:09;;;;;;;15.80;5.03;;;;;;;;;;5033597;28;20658;-78
2023/05/18 04:03:35;;;;;;;13.55;6.68;;;;;;;;;;5032155;28;20038;-78
2023/05/18 04:06:00;;;;;;;12.95;6.43;;;;;;;;;;5033156;28;20029;-78
2023/05/18 04:08:25;;;;;;;8.25;5.40;;;;;;;;;;5033886;28;20029;-77
2023/05/18 04:10:51;;;;;;;13.25;6.45;;;;;;;;;;5033771;28;20399;-77
2023/05/18 04:13:16;;;;;;;14.23;5.32;;;;;;;;;;5032943;28;20076;-77
2023/05/18 04:15:42;;;;;;;14.30;6.25;;;;;;;;;;5033727;28;20026;-78
2023/05/18 04:18:09;;;;;;;12.27;6.53;;;;;;;;;;5033350;28;20479;-77
2023/05/18 04:20:34;;;;;;;15.80;6.53;;;;;;;;;;5033430;28;20395;-77
2023/05/18 04:23:00;;;;;;;18.98;6.50;;;;;;;;;;5031129;28;20048;-78
2023/05/18 04:25:26;;;;;;;9.20;5.57;;;;;;;;;;5033548;28;20087;-78
2023/05/18 04:27:53;;;;;;;17.23;6.30;;;;;;;;;;5032360;28;20060;-77
2023/05/18 04:30:22;;;;;;;10.90;5.85;;;;;;;;;;5034052;28;20022;-78
2023/05/18 04:32:48;;;;;;;13.10;6.47;;;;;;;;;;5033464;28;20032;-78
2023/05/18 04:35:14;;;;;;;13.50;6.70;;;;;;;;;;5048226;28;20493;-78
2023/05/18 04:37:39;;;;;;;11.45;6.72;;;;;;;;;;5033427;28;20029;-78
2023/05/18 04:40:07;;;;;;;13.00;5.70;;;;;;;;;;5033509;28;20041;-78
2023/05/18 04:42:34;;;;;;;13.73;6.18;;;;;;;;;;5033032;28;20068;-78
2023/05/18 04:45:00;;;;;;;9.57;6.25;;;;;;;;;;5033052;28;20104;-78
2023/05/18 04:47:25;;;;;;;13.20;6.43;;;;;;;;;;5032401;28;20125;-77
2023/05/18 04:49:54;;;;;;;7.00;5.38;;;;;;;;;;5032385;28;20414;-77
2023/05/18 04:52:20;;;;;;;7.90;5.03;;;;;;;;;;5030971;28;20076;-78
2023/05/18 04:54:46;;;;;;;9.70;5.63;;;;;;;;;;5028991;28;20559;-78
2023/05/18 04:57:12;;;;;;;18.02;6.90;;;;;;;;;;5026581;28;20056;-77
2023/05/18 04:59:38;;;;;;;9.25;6.18;;;;;;;;;;5029126;28;20021;-78
2023/05/18 05:02:04;;;;;;;8.48;5.50;;;;;;;;;;5028761;28;20044;-78
2023/05/18 05:04:29;;;;;;;14.73;6.15;;;;;;;;;;5029927;28;20522;-77
2023/05/18 05:06:55;;;;;;;11.32;5.78;;;;;;;;;;5029655;28;20033;-77
2023/05/18 05:09:20;;;;;;;6.97;4.25;;;;;;;;;;5029119;28;20044;-78
2023/05/18 05:11:46;;;;;;;7.40;4.97;;;;;;;;;;5031383;28;20040;-77
2023/05/18 05:14:11;;;;;;;14.25;5.35;;;;;;;;;;5028104;28;20128;-78
2023/05/18 05:16:37;;;;;;;12.98;5.32;;;;;;;;;;5029591;28;20058;-79
2023/05/18 05:19:02;;;;;;;9.32;5.40;;;;;;;;;;5032409;28;20109;-78
2023/05/18 05:21:27;;;;;;;8.43;4.30;;;;;;;;;;5032164;28;20037;-79
2023/05/18 05:23:53;;;;;;;6.45;3.83;;;;;;;;;;5029762;28;20756;-79
2023/05/18 05:26:20;;;;;;;9.73;5.03;;;;;;;;;;5025993;28;20041;-80
2023/05/18 05:28:45;;;;;;;19.90;6.43;;;;;;;;;;5027629;28;20025;-78
2023/05/18 05:31:10;;;;;;;9.77;5.25;;;;;;;;;;5027840;28;20566;-79
2023/05/18 05:33:36;;;;;;;11.70;4.57;;;;;;;;;;5028464;28;20037;-78
2023/05/18 05:36:04;;;;;;;9.48;6.15;;;;;;;;;;5027815;28;20107;-78
2023/05/18 05:38:29;;;;;;;6.97;4.35;;;;;;;;;;5031139;28;20052;-78
2023/05/18 05:40:54;;;;;;;5.53;4.10;;;;;;;;;;5030780;28;20392;-78
2023/05/18 05:43:20;;;;;;;6.85;4.88;;;;;;;;;;5032604;28;20091;-79
2023/05/18 05:45:45;;;;;;;6.63;2.65;;;;;;;;;;5028808;28;20199;-78
2023/05/18 05:48:10;;;;;;;5.22;4.15;;;;;;;;;;5027818;28;20030;-78
2023/05/18 05:50:36;;;;;;;4.65;3.83;;;;;;;;;;5031401;28;20029;-78
2023/05/18 05:53:01;;;;;;;10.68;4.68;;;;;;;;;;5027688;28;20042;-79
2023/05/18 05:55:26;;;;;;;7.80;3.53;;;;;;;;;;5030799;28;20030;-78
2023/05/18 05:57:52;;;;;;;4.85;3.67;;;;;;;;;;5030599;28;20041;-78
2023/05/18 06:00:18;;;;;;;5.43;4.18;;;;;;;;;;5026917;28;20037;-78
2023/05/18 06:02:43;;;;;;;6.82;3.88;;;;;;;;;;5028971;28;20030;-78
2023/05/18 06:05:09;;;;;;;8.63;4.00;;;;;;;;;;5028632;28;20033;-78
2023/05/18 06:07:34;;;;;;;7.30;4.60;;;;;;;;;;5030612;28;20049;-79
2023/05/18 06:10:00;;;;;;;8.25;5.20;;;;;;;;;;5028970;28;20033;-78
2023/05/18 06:12:25;;;;;;;8.40;4.10;;;;;;;;;;5021180;28;20622;-78
2023/05/18 06:14:56;;;;;;;9.95;3.47;;;;;;;;;;5030863;28;20070;-78
2023/05/18 06:17:24;;;;;;;4.78;3.08;;;;;;;;;;5032106;28;20696;-79
2023/05/18 06:19:50;;;;;;;8.38;3.78;;;;;;;;;;5029775;28;20033;-78
2023/05/18 06:22:15;;;;;;;7.10;3.40;;;;;;;;;;5031463;28;20118;-78
2023/05/18 06:24:40;;;;;;;6.70;3.88;;;;;;;;;;5029639;28;20034;-79
2023/05/18 06:27:07;;;;;;;5.50;2.92;;;;;;;;;;5033149;28;20519;-78
2023/05/18 06:29:32;;;;;;;8.38;3.42;;;;;;;;;;5035278;28;20037;-78
2023/05/18 06:31:58;;;;;;;4.25;2.90;;;;;;;;;;5034317;28;20025;-78
2023/05/18 06:34:23;;;;;;;3.15;2.40;;;;;;;;;;5033082;28;20033;-78
2023/05/18 06:36:48;;;;;;;8.77;2.92;;;;;;;;;;5034308;28;20045;-78
2023/05/18 06:39:14;;;;;;;6.18;3.03;;;;;;;;;;5034502;28;20558;-78
2023/05/18 06:41:39;;;;;;;8.80;2.95;;;;;;;;;;5036205;28;20072;-78
2023/05/18 06:44:05;;;;;;;7.00;2.50;;;;;;;;;;5032550;28;20041;-78
2023/05/18 06:46:30;;;;;;;5.38;2.33;;;;;;;;;;5032312;28;20038;-78
2023/05/18 06:48:55;;;;;;;9.80;3.20;;;;;;;;;;5035491;28;20064;-79
2023/05/18 06:51:21;;;;;;;20.05;2.78;;;;;;;;;;5031101;28;20515;-79
2023/05/18 06:53:47;;;;;;;7.90;3.58;;;;;;;;;;5014205;28;20029;-78
2023/05/18 06:56:12;;;;;;;5.07;2.55;;;;;;;;;;5032714;28;20030;-78
2023/05/18 06:58:38;;;;;;;14.82;3.22;;;;;;;;;;5032615;28;20104;-78
2023/05/18 07:01:04;;;;;;;6.13;2.97;;;;;;;;;;5034441;28;20495;-78
2023/05/18 07:03:29;;;;;;;7.90;3.47;;;;;;;;;;5036320;28;20041;-78
2023/05/18 07:05:54;;;;;;;3.53;2.38;;;;;;;;;;5034617;28;20021;-78
2023/05/18 07:08:19;;;;;;;7.03;2.88;;;;;;;;;;5033430;28;20041;-78
2023/05/18 07:10:45;;;;;;;6.10;2.88;;;;;;;;;;5036223;28;20041;-79
2023/05/18 07:13:11;;;;;;;9.80;3.47;;;;;;;;;;5035133;28;20041;-79
2023/05/18 07:15:37;;;;;;;6.60;2.63;;;;;;;;;;5036843;28;20025;-79
2023/05/18 07:18:02;;;;;;;8.55;2.55;;;;;;;;;;5032415;28;20259;-78
2023/05/18 07:20:28;;;;;;;4.57;2.47;;;;;;;;;;5031309;28;20034;-78
2023/05/18 07:22:54;;;;;;;9.57;3.38;;;;;;;;;;5037811;28;20501;-78
2023/05/18 07:25:20;;;;;;;6.45;2.55;;;;;;;;;;5035126;28;20408;-78
2023/05/18 07:27:45;;;;;;;6.47;2.65;;;;;;;;;;5034938;28;20045;-78
2023/05/18 07:30:11;;;;;;;4.38;2.75;;;;;;;;;;5035374;28;20029;-78
2023/05/18 07:32:36;;;;;;;4.53;2.70;;;;;;;;;;5035306;28;20087;-78
2023/05/18 07:35:02;;;;;;;8.05;3.00;;;;;;;;;;5035634;28;20041;-79
2023/05/18 07:37:27;;;;;;;9.13;2.67;;;;;;;;;;5036091;28;20061;-79
2023/05/18 07:39:52;;;;;;;7.95;2.72;;;;;;;;;;5034284;28;20041;-79
2023/05/18 07:42:18;;;;;;;4.65;2.53;;;;;;;;;;5035873;28;20072;-79
2023/05/18 07:44:43;;;;;;;6.28;2.60;;;;;;;;;;5035099;28;20110;-78
2023/05/18 07:47:08;;;;;;;5.43;2.50;;;;;;;;;;5035047;28;20090;-78
2023/05/18 07:49:34;;;;;;;4.95;2.35;;;;;;;;;;5036643;28;20557;-78
2023/05/18 07:52:01;;;;;;;3.97;2.33;;;;;;;;;;5036219;28;20053;-78
2023/05/18 07:54:26;;;;;;;7.43;2.28;;;;;;;;;;5033218;28;20113;-78
2023/05/18 07:56:51;;;;;;;11.18;2.13;;;;;;;;;;5033486;28;20053;-79
2023/05/18 07:59:17;;;;;;;3.80;2.33;;;;;;;;;;5030963;28;20101;-77
2023/05/18 08:01:47;;;;;;;3.88;2.13;;;;;;;;;;5037313;28;20037;-79
2023/05/18 08:04:13;;;;;;;15.75;1.88;;;;;;;;;;5034545;28;20071;-79
2023/05/18 08:06:38;;;;;;;8.48;3.10;;;;;;;;;;5027783;28;20511;-77
2023/05/18 08:09:03;;;;;;;12.15;3.05;;;;;;;;;;5031683;28;20388;-77
2023/05/18 08:11:29;;;;;;;13.73;2.67;;;;;;;;;;5031306;28;20030;-77
2023/05/18 08:13:54;;;;;;;4.53;2.72;;;;;;;;;;5030896;28;20056;-77
2023/05/18 08:16:20;;;;;;;6.05;2.20;;;;;;;;;;5036967;28;20041;-75
2023/05/18 08:18:45;;;;;;;5.28;2.70;;;;;;;;;;5031679;28;20092;-77
2023/05/18 08:21:10;;;;;;;2.72;2.53;;;;;;;;;;5033177;28;20037;-78
2023/05/18 08:23:36;;;;;;;3.88;2.17;;;;;;;;;;5031198;28;20025;-78
2023/05/18 08:26:05;;;;;;;3.28;2.85;;;;;;;;;;5032843;28;20034;-78
2023/05/18 08:28:30;;;;;;;5.85;2.78;;;;;;;;;;5029615;28;20492;-78
2023/05/18 08:30:56;;;;;;;4.00;2.13;;;;;;;;;;5031270;28;20025;-78
2023/05/18 08:33:22;;;;;;;9.75;2.67;;;;;;;;;;5033354;28;20069;-80
2023/05/18 08:35:47;;;;;;;4.22;2.47;;;;;;;;;;5032477;28;20017;-78
2023/05/18 08:38:13;;;;;;;3.33;2.60;;;;;;;;;;5032687;28;20025;-78
2023/05/18 08:41:00;;;;;;;3.38;2.03;;;;;;;;;;5032983;28;20030;-78
2023/05/18 08:43:32;;;;;;;4.68;2.55;;;;;;;;;;5031414;28;20037;-80
2023/05/18 08:46:09;;;;;;;4.35;2.60;;;;;;;;;;5033919;28;20053;-78
2023/05/18 08:48:35;;;;;;;5.30;2.88;;;;;;;;;;5031670;28;20029;-79
2023/05/18 08:51:04;;;;;;;4.13;2.13;;;;;;;;;;5034971;28;20075;-78
2023/05/18 08:53:32;;;;;;;6.82;2.60;;;;;;;;;;5015231;28;20042;-78
2023/05/18 08:55:58;;;;;;;2.55;2.35;;;;;;;;;;5031514;28;20499;-78
2023/05/18 08:58:35;;;;;;;3.67;2.25;;;;;;;;;;5034623;28;20412;-78
2023/05/18 09:01:02;;;;;;;3.17;2.40;;;;;;;;;;5026100;28;20117;-78
2023/05/18 09:03:28;;;;;;;3.40;2.60;;;;;;;;;;5019443;28;20033;-77
2023/05/18 09:05:55;;;;;;;11.98;4.10;;;;;;;;;;5037035;28;20026;-78
2023/05/18 09:08:21;;;;;;;7.97;2.88;;;;;;;;;;5032004;28;20045;-78
2023/05/18 09:10:47;;;;;;;5.20;2.70;;;;;;;;;;5027134;28;20037;-78
2023/05/18 09:13:13;;;;;;;6.97;2.33;;;;;;;;;;5033001;28;20045;-78
2023/05/18 09:15:39;;;;;;;3.53;2.35;;;;;;;;;;5031955;28;20153;-78
2023/05/18 09:18:04;;;;;;;5.32;2.97;;;;;;;;;;5034045;28;20487;-78
2023/05/18 09:20:30;;;;;;;7.00;3.00;;;;;;;;;;5034679;28;20097;-78
2023/05/18 09:22:56;;;;;;;5.10;2.95;;;;;;;;;;5033120;28;20038;-78
2023/05/18 09:25:23;;;;;;;5.97;2.83;;;;;;;;;;5033500;28;20076;-78
2023/05/18 09:27:50;;;;;;;5.32;2.70;;;;;;;;;;5030663;28;20519;-78
2023/05/18 09:30:16;;;;;;;3.55;2.28;;;;;;;;;;5030468;28;20022;-78
2023/05/18 09:32:41;;;;;;;4.38;2.17;;;;;;;;;;5033251;28;20385;-78
2023/05/18 09:35:07;;;;;;;4.15;2.60;;;;;;;;;;5031228;28;20449;-77
2023/05/18 09:37:36;;;;;;;2.92;2.17;;;;;;;;;;5033838;28;20034;-77
2023/05/18 09:40:06;;;;;;;5.85;2.90;;;;;;;;;;5032850;28;20043;-78
2023/05/18 09:42:42;;;;;;;5.60;2.53;;;;;;;;;;5032487;28;20033;-78
2023/05/18 09:45:18;;;;;;;3.78;2.40;;;;;;;;;;5031150;28;20499;-78
2023/05/18 09:47:44;;;;;;;6.20;2.75;;;;;;;;;;5031666;28;20110;-78
2023/05/18 09:50:10;;;;;;;2.28;2.05;;;;;;;;;;5030917;28;20036;-78
2023/05/18 09:52:43;;;;;;;3.03;2.20;;;;;;;;;;5031481;28;20486;-78
2023/05/18 09:55:14;;;;;;;3.15;1.92;;;;;;;;;;5031667;28;20865;-78
2023/05/18 09:57:42;;;;;;;2.80;1.90;;;;;;;;;;5029771;28;20067;-78
2023/05/18 10:00:11;;;;;;;6.13;2.28;;;;;;;;;;5033227;28;20021;-78
2023/05/18 10:02:38;;;;;;;6.30;2.08;;;;;;;;;;5030668;28;20060;-78
2023/05/18 10:05:03;;;;;;;20.55;2.35;;;;;;;;;;5027725;28;20043;-78
2023/05/18 10:07:29;;;;;;;2.90;2.28;;;;;;;;;;5031337;28;20049;-78
2023/05/18 10:10:02;;;;;;;3.63;2.08;;;;;;;;;;5032593;28;20033;-78
2023/05/18 10:12:27;;;;;;;2.78;2.03;;;;;;;;;;5029752;28;20052;-78
2023/05/18 10:14:53;;;;;;;4.50;2.33;;;;;;;;;;5032292;28;20022;-78
2023/05/18 10:17:18;;;;;;;2.17;1.88;;;;;;;;;;5031322;28;20116;-79
2023/05/18 10:19:45;;;;;;;6.13;2.45;;;;;;;;;;5030714;28;20121;-78
2023/05/18 10:22:14;;;;;;;2.17;1.92;;;;;;;;;;5029305;28;20126;-78
2023/05/18 10:24:44;;;;;;;4.10;2.00;;;;;;;;;;5029914;28;20029;-78
2023/05/18 10:27:11;;;;;;;5.55;2.85;;;;;;;;;;5028531;28;20049;-78
2023/05/18 10:29:37;;;;;;;7.47;2.78;;;;;;;;;;5029498;28;20021;-78
2023/05/18 10:32:03;;;;;;;5.82;2.70;;;;;;;;;;5024792;28;20034;-78
2023/05/18 10:34:29;;;;;;;5.05;1.92;;;;;;;;;;5028691;28;20574;-78
2023/05/18 10:36:56;;;;;;;3.47;2.28;;;;;;;;;;5031935;28;20093;-78
2023/05/18 10:39:23;;;;;;;3.28;2.35;;;;;;;;;;5030736;28;20037;-78
2023/05/18 10:41:53;;;;;;;2.70;2.38;;;;;;;;;;5031910;28;20090;-78
2023/05/18 10:44:19;;;;;;;6.75;2.17;;;;;;;;;;5030252;28;20025;-78
2023/05/18 10:46:44;;;;;;;4.05;2.13;;;;;;;;;;5031514;28;20125;-78
2023/05/18 10:49:12;;;;;;;5.25;2.35;;;;;;;;;;5029290;28;20123;-78
2023/05/18 10:51:40;;;;;;;4.15;2.42;;;;;;;;;;5031578;28;20052;-78
2023/05/18 10:54:13;;;;;;;10.20;3.47;;;;;;;;;;5031643;28;20025;-78
2023/05/18 10:56:44;;;;;;;3.53;2.47;;;;;;;;;;5031020;28;20296;-78
2023/05/18 10:59:11;;;;;;;2.95;2.47;;;;;;;;;;5030022;28;20060;-78
2023/05/18 11:01:39;;;;;;;8.75;3.25;;;;;;;;;;5028538;28;20037;-78
2023/05/18 11:04:05;;;;;;;8.48;3.00;;;;;;;;;;5029746;28;20045;-78
2023/05/18 11:06:32;;;;;;;9.07;2.33;;;;;;;;;;5026497;28;20404;-78
2023/05/18 11:08:58;;;;;;;10.02;2.33;;;;;;;;;;5029833;28;20026;-78
2023/05/18 11:11:28;;;;;;;4.32;2.50;;;;;;;;;;5031472;28;20065;-78
2023/05/18 11:14:00;;;;;;;3.70;2.50;;;;;;;;;;5032647;28;20029;-78
2023/05/18 11:16:36;;;;;;;7.85;3.63;;;;;;;;;;5033449;28;20042;-78
2023/05/18 11:19:06;;;;;;;5.57;2.42;;;;;;;;;;5032966;28;20048;-78
2023/05/18 11:21:40;;;;;;;3.67;2.30;;;;;;;;;;5034096;28;20033;-78
2023/05/18 11:24:15;;;;;;;7.70;2.75;;;;;;;;;;5032983;28;20387;-78
2023/05/18 11:26:41;;;;;;;6.22;2.38;;;;;;;;;;5032777;28;20495;-78
2023/05/18 11:29:17;;;;;;;5.28;2.90;;;;;;;;;;5031132;28;20037;-78
2023/05/18 11:31:47;;;;;;;9.90;3.30;;;;;;;;;;5037142;28;20169;-78
2023/05/18 11:34:38;;;;;;;7.97;2.58;;;;;;;;;;5037921;28;20057;-78
2023/05/18 11:37:04;;;;;;;5.10;2.10;;;;;;;;;;5033062;28;20033;-78
2023/05/18 11:39:31;;;;;;;3.83;2.22;;;;;;;;;;5034034;28;20029;-78
2023/05/18 11:42:04;;;;;;;2.80;1.90;;;;;;;;;;5034367;28;20463;-77
2023/05/18 11:44:31;;;;;;;3.47;2.10;;;;;;;;;;5033084;28;20600;-78
2023/05/18 11:47:10;;;;;;;5.57;2.58;;;;;;;;;;5034477;28;20484;-78
2023/05/18 11:49:37;;;;;;;8.40;2.10;;;;;;;;;;5032963;28;20021;-78
2023/05/18 11:52:06;;;;;;;4.75;2.53;;;;;;;;;;5034091;28;20033;-78
2023/05/18 11:54:38;;;;;;;2.40;2.17;;;;;;;;;;5034288;28;20435;-78
2023/05/18 11:57:04;;;;;;;4.95;2.22;;;;;;;;;;5033352;28;20025;-78
2023/05/18 11:59:31;;;;;;;4.00;2.30;;;;;;;;;;5034261;28;20025;-78
2023/05/18 12:01:59;;;;;;;9.60;2.78;;;;;;;;;;5034206;28;20037;-78
2023/05/18 12:04:26;;;;;;;9.85;3.08;;;;;;;;;;5033637;28;20034;-78
2023/05/18 12:06:53;;;;;;;5.82;2.65;;;;;;;;;;5031722;28;20589;-78
2023/05/18 12:09:19;;;;;;;8.65;2.70;;;;;;;;;;5032424;28;20033;-78
2023/05/18 12:11:44;;;;;;;4.45;2.40;;;;;;;;;;5034856;28;20025;-78
2023/05/18 12:14:10;;;;;;;4.53;2.58;;;;;;;;;;5049281;23;20782;-81
2023/05/18 12:16:38;;;;;;;11.50;3.45;;;;;;;;;;5021144;28;20030;-81
2023/05/18 12:19:03;;;;;;;5.18;2.83;;;;;;;;;;5015280;28;20488;-81
2023/05/18 12:21:28;;;;;;;9.65;2.42;;;;;;;;;;5015506;28;20048;-81
2023/05/18 12:23:58;;;;;;;8.05;2.92;;;;;;;;;;5011292;28;20041;-81
2023/05/18 12:26:24;;;;;;;7.38;2.65;;;;;;;;;;4988749;28;20608;-80
2023/05/18 12:28:51;;;;;;;6.35;2.55;;;;;;;;;;5005003;28;20064;-80
2023/05/18 12:31:16;;;;;;;5.18;2.72;;;;;;;;;;5005652;28;20027;-81
2023/05/18 12:33:42;;;;;;;4.22;2.38;;;;;;;;;;5005154;28;20034;-80
2023/05/18 12:36:13;;;;;;;3.80;2.40;;;;;;;;;;5020115;28;20026;-80
2023/05/18 12:38:39;;;;;;;4.80;2.53;;;;;;;;;;5004596;28;20037;-80
2023/05/18 12:41:05;;;;;;;15.10;2.65;;;;;;;;;;4996757;28;20125;-81
2023/05/18 12:43:34;;;;;;;6.70;2.80;;;;;;;;;;5004299;28;20038;-81
2023/05/18 12:46:03;;;;;;;6.63;2.58;;;;;;;;;;4998062;28;20069;-80
2023/05/18 12:48:36;;;;;;;4.32;2.03;;;;;;;;;;5001583;28;20070;-80
2023/05/18 12:51:02;;;;;;;4.70;2.65;;;;;;;;;;5002719;28;20081;-81
2023/05/18 12:53:40;;;;;;;8.00;2.45;;;;;;;;;;5002843;28;20070;-81
2023/05/18 12:56:08;;;;;;;5.43;3.25;;;;;;;;;;5007650;28;20037;-81
2023/05/18 12:58:34;;;;;;;7.80;2.63;;;;;;;;;;5005190;28;20074;-81
2023/05/18 13:01:06;;;;;;;5.80;1.85;;;;;;;;;;5001998;28;20590;-81
2023/05/18 13:03:32;;;;;;;4.00;2.03;;;;;;;;;;5000169;28;20042;-81
2023/05/18 13:06:05;;;;;;;4.00;2.85;;;;;;;;;;5003650;28;20037;-81
2023/05/18 13:08:31;;;;;;;2.60;2.38;;;;;;;;;;5004074;28;20037;-81
2023/05/18 13:11:01;;;;;;;6.13;2.55;;;;;;;;;;4992213;28;20129;-81
2023/05/18 13:13:27;;;;;;;3.38;1.85;;;;;;;;;;4991021;28;20582;-81
2023/05/18 13:15:52;;;;;;;6.45;2.53;;;;;;;;;;5002829;28;20070;-81
2023/05/18 13:18:17;;;;;;;3.13;2.45;;;;;;;;;;5005373;28;20038;-80
2023/05/18 13:20:48;;;;;;;4.43;2.00;;;;;;;;;;5002570;28;20022;-81
2023/05/18 13:23:14;;;;;;;7.82;3.25;;;;;;;;;;5001255;28;20518;-81
2023/05/18 13:25:41;;;;;;;6.43;2.65;;;;;;;;;;5006283;28;20404;-80
2023/05/18 13:28:09;;;;;;;6.05;3.17;;;;;;;;;;4996963;28;20034;-80
2023/05/18 13:30:35;;;;;;;4.90;2.42;;;;;;;;;;4993668;28;20487;-81
2023/05/18 13:33:00;;;;;;;2.55;2.20;;;;;;;;;;4996122;28;20032;-81
2023/05/18 13:35:25;;;;;;;5.13;2.63;;;;;;;;;;4992355;28;20038;-81
2023/05/18 13:37:51;;;;;;;7.43;2.30;;;;;;;;;;4993420;28;20452;-81
2023/05/18 13:40:20;;;;;;;10.85;2.20;;;;;;;;;;4993178;28;20052;-81
2023/05/18 13:42:46;;;;;;;3.53;2.70;;;;;;;;;;4995341;28;20066;-81
2023/05/18 13:45:12;;;;;;;3.72;2.35;;;;;;;;;;4991151;28;20030;-81
2023/05/18 13:47:38;;;;;;;5.38;2.95;;;;;;;;;;5014813;28;20022;-81
2023/05/18 13:50:07;;;;;;;4.35;2.50;;;;;;;;;;4996999;28;20041;-81
2023/05/18 13:52:34;;;;;;;3.92;1.88;;;;;;;;;;4997018;28;20053;-81
2023/05/18 13:54:59;;;;;;;3.75;2.67;;;;;;;;;;4994874;28;20045;-81
2023/05/18 13:57:25;;;;;;;5.05;2.08;;;;;;;;;;4980693;28;20050;-81
2023/05/18 13:59:51;;;;;;;3.58;2.00;;;;;;;;;;4996756;28;20061;-80
2023/05/18 14:02:17;;;;;;;7.03;2.83;;;;;;;;;;4992154;28;20034;-81
2023/05/18 14:04:43;;;;;;;7.25;2.80;;;;;;;;;;5010164;28;20038;-81
2023/05/18 14:07:09;;;;;;;3.38;1.98;;;;;;;;;;4997600;28;20093;-80
2023/05/18 14:09:35;;;;;;;8.40;2.88;;;;;;;;;;4995442;28;20038;-81
2023/05/18 14:12:00;;;;;;;5.47;2.35;;;;;;;;;;4992609;28;20030;-80
2023/05/18 14:14:25;;;;;;;4.65;2.40;;;;;;;;;;4995938;28;20038;-80
2023/05/18 14:16:51;;;;;;;8.38;2.72;;;;;;;;;;4995167;28;20121;-80
2023/05/18 14:19:16;;;;;;;5.28;2.50;;;;;;;;;;4992296;28;20035;-81
2023/05/18 14:21:41;;;;;;;3.72;1.95;;;;;;;;;;4991472;28;20046;-81
2023/05/18 14:24:08;;;;;;;12.80;2.63;;;;;;;;;;4992555;28;20505;-81
2023/05/18 14:26:35;;;;;;;7.53;2.50;;;;;;;;;;4993452;28;20026;-81
2023/05/18 14:29:00;;;;;;;2.50;2.30;;;;;;;;;;5000515;28;20091;-81
2023/05/18 14:31:26;;;;;;;7.63;2.88;;;;;;;;;;4994654;28;20062;-81
2023/05/18 14:33:51;;;;;;;6.88;3.03;;;;;;;;;;4994657;28;20039;-81
2023/05/18 14:36:16;;;;;;;3.75;2.20;;;;;;;;;;5000412;28;20488;-81
2023/05/18 14:38:42;;;;;;;6.72;2.45;;;;;;;;;;5005644;28;20029;-81